Morgantown Municipal Walter L. Bill Hart Field
KMGW : now visible

Airfield :











YOU CAN JOIN US ON...

 
LOGIN :

Register | Disclaimer

   EN    FR    IT 

 









Legend :    VFR   Marginal VFR   IFR   Intensive IFR   Very Intensive IFR
Visi :
Ceiling :
>= 8 km
>= 3000ft
5 to 8 km
1000 to 3000 ft
1500m to 5 km
500 to 1000 ft
800 to 1500m
200 to 500 ft
< 800m
< 200 ft
Symbols :   Thunderstorms  Fog  Heavy snow  Heavy precipitations  Wind > 20 kt






- Airport Elevation : 1248 ft
- IATA code : MGW


KMGW - Morgantown Municipal Walter L. Bill Hart Field

CURRENT METAR :
  • 101153Z 27008G15KT 10SM BKN033 02/M06 A2975 RMK AO2 SLP080 70005 T00171056 10039 20011 53024

EXPIRED METARs :
  • 101053Z AUTO VRB06KT 10SM FEW049 02/M06 A2971 RMK AO2 SLP068 T00171061
  • 100953Z AUTO 27009G14KT 250V310 10SM SCT040 SCT049 02/M07 A2969 RMK AO2 SLP061 T00171067

TAF KMGW
Valid from the 10 at 12:00 until the 11 at 12:00 UTC


101123Z 1012/1112 28011G19KT P6SM BKN050
FM101500 29016G25KT P6SM BKN060
FM102300 29009G16KT P6SM BKN060
FM110400 26005KT P6SM SCT070



MET'MAP, your aeronautical weather chart ! - Copyright ORBIFLY December 2007 - Disclaimer

ORBIFLY MET'MAP TEAM :

Programming & Development : Alexandra Zaïnal
Concept & original design : Baudouin d'Aumeries
Assistance for programming : Marc-Olivier Méhu
Technical & hardware support : Manuel Goepfert

Contact : metmap@orbifly.com




SOURCES & CREDITS :

   NOAA       Earth
Advisory